Last 24 Hours

Modesto Jr College

15 Minute Data | America/Los_Angeles
as of 8/9/20 1:16 AM PDT
Date & Time Temp (°F) RH (%) Dew Pt (°F) Wind Spd (mph) Wind Dir (°) Wind Gust (mph) Latest Rain (In) Daily Rain (In) Daily Min Temp (°F) Daily Max Temp (°F)
8/9/20 - 0115 70.8 60 56.3 2.1 NNW | 344 3.7 0.00 0.00 69.7 71.5
8/9/20 - 0100 71.4 58 56.0 2.4 N | 351 5.0 0.00 0.00 58.8 94.3
8/9/20 - 0045 71.6 59 56.7 3.2 N | 5 5.7 0.00 0.00 58.8 94.3
8/9/20 - 0030 71.5 62 57.7 3.0 N | 354 6.1 0.00 0.00 58.8 94.3
8/9/20 - 0015 72.2 61 58.2 2.9 NNW | 343 4.6 0.00 0.00 58.8 94.3
8/9/20 - 0000 73.0 60 58.2 2.1 N | 351 4.6 0.00 0.00 58.8 94.3
8/8/20 - 2345 73.4 58 57.9 3.5 NNW | 348 5.9 0.00 0.00 58.8 94.3
8/8/20 - 2330 73.7 56 57.0 2.9 N | 350 5.0 0.00 0.00 58.8 94.3
8/8/20 - 2315 74.3 54 56.8 2.5 N | 4 5.5 0.00 0.00 58.8 94.3
8/8/20 - 2300 75.3 51 55.8 3.4 N | 356 6.6 0.00 0.00 58.8 94.3
8/8/20 - 2245 75.5 51 56.2 4.2 N | 352 7.2 0.00 0.00 58.8 94.3
8/8/20 - 2230 75.9 52 56.8 3.6 NNW | 335 8.3 0.00 0.00 58.8 94.3
8/8/20 - 2215 76.4 51 57.0 4.2 NNW | 334 7.5 0.00 0.00 58.8 94.3
8/8/20 - 2200 76.3 54 58.4 3.1 N | 351 7.7 0.00 0.00 58.8 94.3
8/8/20 - 2145 77.2 52 58.4 3.4 N | 7 5.5 0.00 0.00 58.8 94.3
8/8/20 - 2130 78.6 44 55.0 4.2 NNW | 333 10.1 0.00 0.00 58.8 94.3
8/8/20 - 2115 79.6 42 54.7 3.9 NW | 315 7.2 0.00 0.00 58.8 94.3
8/8/20 - 2100 80.2 44 56.2 3.6 NW | 307 6.8 0.00 0.00 58.8 94.3
8/8/20 - 2045 81.1 46 58.2 4.2 NW | 307 7.0 0.00 0.00 58.8 94.3
8/8/20 - 2030 81.5 48 60.1 4.4 WNW | 299 8.3 0.00 0.00 58.8 94.3
8/8/20 - 2015 82.4 49 61.5 4.6 WNW | 289 7.2 0.00 0.00 58.8 94.3
8/8/20 - 2000 84.1 46 61.0 5.4 WNW | 286 8.6 0.00 0.00 58.8 94.3
8/8/20 - 1945 85.7 45 61.8 5.4 WNW | 286 8.3 0.00 0.00 58.8 94.3
8/8/20 - 1930 87.8 43 62.5 5.5 WNW | 285 8.3 0.00 0.00 58.8 94.3
8/8/20 - 1915 89.4 39 61.3 4.5 WNW | 289 7.7 0.00 0.00 58.8 94.3
8/8/20 - 1900 90.3 36 59.5 3.4 NW | 309 6.4 0.00 0.00 58.8 94.3
8/8/20 - 1845 90.8 34 58.4 3.6 NNW | 338 7.7 0.00 0.00 58.8 94.3
8/8/20 - 1830 91.3 33 58.2 3.6 NW | 324 7.0 0.00 0.00 58.8 94.3
8/8/20 - 1815 91.2 33 58.5 3.5 NNW | 338 7.5 0.00 0.00 58.8 94.3
8/8/20 - 1800 91.2 36 60.2 3.1 N | 352 6.8 0.00 0.00 58.8 94.3
8/8/20 - 1745 92.3 32 58.2 3.4 N | 350 7.5 0.00 0.00 58.8 94.3
8/8/20 - 1730 92.6 32 58.6 3.8 NW | 311 9.2 0.00 0.00 58.8 94.3
8/8/20 - 1715 92.9 34 60.2 3.5 NW | 310 7.9 0.00 0.00 58.8 94.3
8/8/20 - 1700 93.2 33 59.6 4.5 NW | 306 9.2 0.00 0.00 58.8 94.3
8/8/20 - 1645 93.7 31 58.9 2.7 W | 274 7.7 0.00 0.00 58.8 94.3
8/8/20 - 1630 93.0 32 59.1 2.9 WNW | 291 7.7 0.00 0.00 58.8 93.6
8/8/20 - 1615 92.9 30 56.5 3.1 WNW | 296 10.1 0.00 0.00 58.8 93.6
8/8/20 - 1600 93.1 28 55.1 3.4 WSW | 239 7.2 0.00 0.00 58.8 93.6
8/8/20 - 1545 92.4 33 58.9 3.3 W | 278 9.2 0.00 0.00 58.8 93.1
8/8/20 - 1530 91.7 34 59.3 3.4 W | 277 7.9 0.00 0.00 58.8 92.2
8/8/20 - 1515 91.5 34 59.4 3.8 WNW | 287 9.2 0.00 0.00 58.8 91.9
8/8/20 - 1500 91.4 35 59.7 3.3 W | 261 8.6 0.00 0.00 58.8 91.9
8/8/20 - 1445 90.4 33 57.5 4.5 W | 264 8.1 0.00 0.00 58.8 91.0
8/8/20 - 1430 89.8 32 56.2 4.5 W | 280 8.6 0.00 0.00 58.8 90.4
8/8/20 - 1415 89.4 33 56.7 5.3 W | 278 9.4 0.00 0.00 58.8 90.1
8/8/20 - 1400 89.4 35 57.8 4.9 W | 270 10.5 0.00 0.00 58.8 89.9
8/8/20 - 1345 88.3 36 58.2 5.3 WNW | 284 9.9 0.00 0.00 58.8 88.8
8/8/20 - 1330 87.7 37 58.1 5.4 W | 280 9.2 0.00 0.00 58.8 88.1
8/8/20 - 1315 87.5 39 59.5 5.9 W | 271 11.4 0.00 0.00 58.8 88.1
8/8/20 - 1300 87.3 39 59.6 5.0 WNW | 285 13.8 0.00 0.00 58.8 87.8
8/8/20 - 1245 86.3 42 60.3 3.9 W | 281 11.4 0.00 0.00 58.8 87.3
8/8/20 - 1230 85.0 43 60.2 3.7 NNW | 342 8.1 0.00 0.00 58.8 85.9
8/8/20 - 1215 84.6 42 59.3 3.7 NW | 323 7.9 0.00 0.00 58.8 85.8
8/8/20 - 1200 84.2 44 60.1 4.8 NW | 326 9.9 0.00 0.00 58.8 85.8
8/8/20 - 1145 84.5 44 60.0 2.5 W | 274 7.5 0.00 0.00 58.8 85.6
8/8/20 - 1130 83.4 44 59.4 4.3 WNW | 288 8.6 0.00 0.00 58.8 84.2
8/8/20 - 1115 82.3 45 59.1 3.5 WNW | 293 7.2 0.00 0.00 58.8 83.6
8/8/20 - 1100 81.4 45 58.1 3.6 W | 276 7.2 0.00 0.00 58.8 82.2
8/8/20 - 1045 80.3 46 57.5 4.4 WNW | 299 9.0 0.00 0.00 58.8 80.9
8/8/20 - 1030 79.4 47 57.6 3.7 WNW | 302 8.6 0.00 0.00 58.8 80.5
8/8/20 - 1015 78.0 48 56.5 4.2 NW | 312 8.6 0.00 0.00 58.8 78.8
8/8/20 - 1000 77.4 50 57.6 4.2 NW | 308 8.1 0.00 0.00 58.8 78.2
8/8/20 - 0945 76.0 53 57.6 3.1 N | 352 7.5 0.00 0.00 58.8 76.9
8/8/20 - 0930 74.6 55 57.4 4.0 NNW | 348 7.9 0.00 0.00 58.8 75.2
8/8/20 - 0915 73.9 56 57.3 5.0 NW | 324 9.2 0.00 0.00 58.8 74.4
8/8/20 - 0900 72.8 58 57.1 5.5 NNW | 331 9.0 0.00 0.00 58.8 73.4
8/8/20 - 0845 72.4 58 57.0 4.2 N | 351 7.5 0.00 0.00 58.8 72.9
8/8/20 - 0830 71.9 59 56.8 1.6 NNW | 331 4.8 0.00 0.00 58.8 72.4
8/8/20 - 0815 70.6 60 56.2 1.0 WNW | 302 2.6 0.00 0.00 58.8 71.8
8/8/20 - 0800 70.1 61 56.0 1.1 W | 272 2.2 0.00 0.00 58.8 71.0
8/8/20 - 0745 68.0 63 55.2 1.8 WSW | 251 3.3 0.00 0.00 58.8 69.3
8/8/20 - 0730 66.5 69 55.9 1.5 WSW | 243 2.8 0.00 0.00 58.8 67.6
8/8/20 - 0715 63.6 79 56.9 0.8 W | 274 2.2 0.00 0.00 58.8 66.7
8/8/20 - 0700 60.8 86 56.5 1.4 NW | 309 2.2 0.00 0.00 58.8 66.7
8/8/20 - 0645 59.5 88 55.9 1.7 NNW | 328 3.1 0.00 0.00 58.8 66.7
8/8/20 - 0630 59.1 88 55.5 1.5 NW | 306 2.4 0.00 0.00 58.8 66.7
8/8/20 - 0615 59.1 88 55.6 1.5 WSW | 249 2.2 0.00 0.00 58.8 66.7
8/8/20 - 0600 59.4 87 55.7 1.0 WSW | 247 1.8 0.00 0.00 59.1 66.7
8/8/20 - 0545 59.6 86 55.5 1.5 WSW | 247 2.4 0.00 0.00 59.3 66.7
8/8/20 - 0530 59.8 86 55.6 1.5 W | 261 3.1 0.00 0.00 59.5 66.7
8/8/20 - 0515 60.0 84 55.3 0.3 WSW | 241 1.3 0.00 0.00 59.8 66.7
8/8/20 - 0500 60.2 80 54.2 0.4 WNW | 296 1.3 0.00 0.00 59.9 66.7
8/8/20 - 0445 60.4 81 54.6 0.6 W | 271 1.8 0.00 0.00 60.1 66.7
8/8/20 - 0430 60.6 82 55.0 0.7 W | 268 1.5 0.00 0.00 60.4 66.7
8/8/20 - 0415 61.0 81 55.1 1.1 WSW | 255 2.2 0.00 0.00 60.6 66.7
8/8/20 - 0400 60.8 80 54.7 0.6 W | 268 1.3 0.00 0.00 60.6 66.7
8/8/20 - 0345 61.1 81 55.2 0.6 W | 262 1.5 0.00 0.00 60.7 66.7
8/8/20 - 0330 61.6 78 54.6 0.8 WSW | 257 1.5 0.00 0.00 61.2 66.7
8/8/20 - 0315 62.1 77 54.8 0.8 W | 272 1.5 0.00 0.00 61.8 66.7
8/8/20 - 0300 62.6 74 54.1 0.5 NW | 304 1.8 0.00 0.00 62.1 66.7
8/8/20 - 0245 63.9 68 53.2 0.2 WSW | 238 1.3 0.00 0.00 63.2 66.7
8/8/20 - 0230 65.2 65 53.0 1.0 NNE | 16 2.2 0.00 0.00 64.3 66.7
8/8/20 - 0215 65.5 61 51.7 0.3 N | 10 1.1 0.00 0.00 64.8 66.7
8/8/20 - 0200 65.3 64 52.8 1.8 NNE | 19 3.7 0.00 0.00 64.8 66.7
8/8/20 - 0145 65.8 65 53.6 3.3 NE | 36 4.6 0.00 0.00 64.9 66.7
8/8/20 - 0130 66.4 63 53.3 2.5 NNE | 27 4.6 0.00 0.00 66.0 66.7
8/8/20 - 0115 66.3 66 54.6 2.3 NNE | 23 3.1 0.00 0.00 66.0 66.6
Max 93.7 88 62.5 5.9 - 13.8 0.00 0.00 69.7 94.3
Avg 77.0 54 57.2 3.0 - 6.2 0.00 - - -
Min 59.1 28 51.7 0.2 - 1.1 0.00 0.00 58.8 66.6
Total - - - - - - 0.00 - - -